sensor_id;sensor_type;location;lat;lon;timestamp;pressure;altitude;pressure_sealevel;temperature;humidity
68891;BME280;55932;48.702;8.884;2022-09-27T00:00:57;94420;;;9.1;70.5
68891;BME280;55932;48.702;8.884;2022-09-27T00:03:26;94420;;;9.1;70.5
68891;BME280;55932;48.702;8.884;2022-09-27T00:06:05;94410;;;9.1;70.5
68891;BME280;55932;48.702;8.884;2022-09-27T00:08:27;94410;;;9.2;70.5
68891;BME280;55932;48.702;8.884;2022-09-27T00:10:58;94420;;;9.2;70
68891;BME280;55932;48.702;8.884;2022-09-27T00:13:39;94420;;;9.2;70
68891;BME280;55932;48.702;8.884;2022-09-27T00:16:09;94410;;;9.2;70
68891;BME280;55932;48.702;8.884;2022-09-27T00:18:39;94410;;;9.2;70
68891;BME280;55932;48.702;8.884;2022-09-27T00:25:59;94410;;;9.2;70
68891;BME280;55932;48.702;8.884;2022-09-27T00:28:30;94400;;;9.2;70
68891;BME280;55932;48.702;8.884;2022-09-27T00:31:00;94410;;;9.2;70
68891;BME280;55932;48.702;8.884;2022-09-27T00:33:31;94400;;;9.2;70.5
68891;BME280;55932;48.702;8.884;2022-09-27T00:36:03;94400;;;9.2;70.5
68891;BME280;55932;48.702;8.884;2022-09-27T00:38:32;94390;;;9.2;70.5
68891;BME280;55932;48.702;8.884;2022-09-27T00:41:02;94390;;;9.2;70.5
68891;BME280;55932;48.702;8.884;2022-09-27T00:43:47;94390;;;9.3;70.5
68891;BME280;55932;48.702;8.884;2022-09-27T00:46:17;94380;;;9.3;70.5
68891;BME280;55932;48.702;8.884;2022-09-27T00:48:44;94390;;;9.2;70.5
68891;BME280;55932;48.702;8.884;2022-09-27T00:53:34;94380;;;9.2;70.5
68891;BME280;55932;48.702;8.884;2022-09-27T00:56:05;94380;;;9.2;70.5
68891;BME280;55932;48.702;8.884;2022-09-27T00:58:35;94380;;;9.1;70.5
68891;BME280;55932;48.702;8.884;2022-09-27T01:01:06;94380;;;9.1;70.5
68891;BME280;55932;48.702;8.884;2022-09-27T01:03:38;94370;;;9.1;70.5
68891;BME280;55932;48.702;8.884;2022-09-27T01:08:36;94380;;;9.2;70.5
68891;BME280;55932;48.702;8.884;2022-09-27T01:11:37;94380;;;9.2;70.5
68891;BME280;55932;48.702;8.884;2022-09-27T01:16:35;94370;;;9.1;70.5
68891;BME280;55932;48.702;8.884;2022-09-27T01:21:23;94380;;;9.2;70.5
68891;BME280;55932;48.702;8.884;2022-09-27T01:24:02;94380;;;9.3;70.5
68891;BME280;55932;48.702;8.884;2022-09-27T01:26:34;94380;;;9.3;70.5
68891;BME280;55932;48.702;8.884;2022-09-27T01:31:45;94380;;;9.5;70
68891;BME280;55932;48.702;8.884;2022-09-27T01:34:08;94380;;;9.5;70
68891;BME280;55932;48.702;8.884;2022-09-27T01:36:36;94380;;;9.6;70
68891;BME280;55932;48.702;8.884;2022-09-27T01:39:16;94380;;;9.6;70
68891;BME280;55932;48.702;8.884;2022-09-27T01:41:44;94380;;;9.6;70
68891;BME280;55932;48.702;8.884;2022-09-27T01:44:37;94370;;;9.7;70
68891;BME280;55932;48.702;8.884;2022-09-27T01:49:05;94370;;;9.7;70
68891;BME280;55932;48.702;8.884;2022-09-27T01:51:36;94380;;;9.8;70
68891;BME280;55932;48.702;8.884;2022-09-27T01:53:57;94380;;;9.7;70
68891;BME280;55932;48.702;8.884;2022-09-27T01:56:29;94380;;;9.7;70
68891;BME280;55932;48.702;8.884;2022-09-27T01:58:56;94390;;;9.6;70
68891;BME280;55932;48.702;8.884;2022-09-27T02:01:25;94400;;;9.5;70
68891;BME280;55932;48.702;8.884;2022-09-27T02:03:55;94400;;;9.3;70
68891;BME280;55932;48.702;8.884;2022-09-27T02:06:27;94410;;;9.3;70
68891;BME280;55932;48.702;8.884;2022-09-27T02:08:57;94410;;;9.2;70.5
68891;BME280;55932;48.702;8.884;2022-09-27T02:11:25;94410;;;9.1;70.5
68891;BME280;55932;48.702;8.884;2022-09-27T02:14:07;94420;;;9.1;70.5
68891;BME280;55932;48.702;8.884;2022-09-27T02:16:42;94420;;;9.1;70.5
68891;BME280;55932;48.702;8.884;2022-09-27T02:23:56;94420;;;8.7;71
68891;BME280;55932;48.702;8.884;2022-09-27T02:26:27;94410;;;8.6;71
68891;BME280;55932;48.702;8.884;2022-09-27T02:28:57;94410;;;8.4;71
68891;BME280;55932;48.702;8.884;2022-09-27T02:33:47;94410;;;8.1;71.5
68891;BME280;55932;48.702;8.884;2022-09-27T02:36:16;94420;;;8;71.5
68891;BME280;55932;48.702;8.884;2022-09-27T02:38:47;94420;;;7.9;71.5
68891;BME280;55932;48.702;8.884;2022-09-27T02:41:18;94420;;;7.9;71.5
68891;BME280;55932;48.702;8.884;2022-09-27T02:43:49;94420;;;7.9;71.5
68891;BME280;55932;48.702;8.884;2022-09-27T02:46:23;94430;;;7.8;71.5
68891;BME280;55932;48.702;8.884;2022-09-27T02:48:54;94440;;;7.9;71.5
68891;BME280;55932;48.702;8.884;2022-09-27T02:51:26;94440;;;7.9;71.5
68891;BME280;55932;48.702;8.884;2022-09-27T02:54:05;94440;;;8;71
68891;BME280;55932;48.702;8.884;2022-09-27T02:56:42;94440;;;8.1;71
68891;BME280;55932;48.702;8.884;2022-09-27T03:01:45;94440;;;8.3;70.5
68891;BME280;55932;48.702;8.884;2022-09-27T03:03:52;94430;;;8.3;70.5
68891;BME280;55932;48.702;8.884;2022-09-27T03:06:22;94440;;;8.4;70.5
68891;BME280;55932;48.702;8.884;2022-09-27T03:08:51;94440;;;8.4;70.5
68891;BME280;55932;48.702;8.884;2022-09-27T03:11:21;94440;;;8.4;70.5
68891;BME280;55932;48.702;8.884;2022-09-27T03:16:22;94450;;;8.5;70.5
68891;BME280;55932;48.702;8.884;2022-09-27T03:18:53;94460;;;8.6;70.5
68891;BME280;55932;48.702;8.884;2022-09-27T03:26:45;94480;;;8.6;70
68891;BME280;55932;48.702;8.884;2022-09-27T03:29:15;94480;;;8.6;70
68891;BME280;55932;48.702;8.884;2022-09-27T03:31:36;94480;;;8.5;70.5
68891;BME280;55932;48.702;8.884;2022-09-27T03:36:36;94480;;;8.5;70.5
68891;BME280;55932;48.702;8.884;2022-09-27T03:39:06;94480;;;8.5;70.5
68891;BME280;55932;48.702;8.884;2022-09-27T03:41:36;94480;;;8.5;70.5
68891;BME280;55932;48.702;8.884;2022-09-27T03:43:55;94480;;;8.6;70.5
68891;BME280;55932;48.702;8.884;2022-09-27T03:46:49;94480;;;8.6;70.5
68891;BME280;55932;48.702;8.884;2022-09-27T03:49:20;94470;;;8.6;70.5
68891;BME280;55932;48.702;8.884;2022-09-27T03:54:09;94470;;;8.6;70.5
68891;BME280;55932;48.702;8.884;2022-09-27T03:56:39;94470;;;8.6;70.5
68891;BME280;55932;48.702;8.884;2022-09-27T03:59:19;94470;;;8.6;70.5
68891;BME280;55932;48.702;8.884;2022-09-27T04:07:10;94470;;;8.5;70.5
68891;BME280;55932;48.702;8.884;2022-09-27T04:09:22;94470;;;8.5;70.5
68891;BME280;55932;48.702;8.884;2022-09-27T04:14:12;94480;;;8.5;70.5
68891;BME280;55932;48.702;8.884;2022-09-27T04:16:42;94480;;;8.5;70.5
68891;BME280;55932;48.702;8.884;2022-09-27T04:19:12;94490;;;8.5;70.5
68891;BME280;55932;48.702;8.884;2022-09-27T04:21:42;94490;;;8.5;70.5
68891;BME280;55932;48.702;8.884;2022-09-27T04:26:31;94490;;;8.5;70.5
68891;BME280;55932;48.702;8.884;2022-09-27T04:29:02;94490;;;8.5;70.5
68891;BME280;55932;48.702;8.884;2022-09-27T04:31:32;94490;;;8.5;70.5
68891;BME280;55932;48.702;8.884;2022-09-27T04:34:04;94490;;;8.5;70.5
68891;BME280;55932;48.702;8.884;2022-09-27T04:36:34;94490;;;8.5;70.5
68891;BME280;55932;48.702;8.884;2022-09-27T04:39:05;94490;;;8.5;70.5
68891;BME280;55932;48.702;8.884;2022-09-27T04:41:34;94490;;;8.5;70.5
68891;BME280;55932;48.702;8.884;2022-09-27T04:49:07;94500;;;8.5;70.5
68891;BME280;55932;48.702;8.884;2022-09-27T04:51:37;94500;;;8.5;70.5
68891;BME280;55932;48.702;8.884;2022-09-27T04:54:07;94500;;;8.5;70.5
68891;BME280;55932;48.702;8.884;2022-09-27T04:56:38;94500;;;8.5;70.5
68891;BME280;55932;48.702;8.884;2022-09-27T04:59:19;94500;;;8.5;70.5
68891;BME280;55932;48.702;8.884;2022-09-27T05:04:20;94510;;;8.5;70.5
68891;BME280;55932;48.702;8.884;2022-09-27T05:06:51;94510;;;8.5;70.5
68891;BME280;55932;48.702;8.884;2022-09-27T05:09:20;94520;;;8.5;70.5
68891;BME280;55932;48.702;8.884;2022-09-27T05:16:41;94530;;;8.5;70.5
68891;BME280;55932;48.702;8.884;2022-09-27T05:19:11;94530;;;8.5;70.5
68891;BME280;55932;48.702;8.884;2022-09-27T05:21:42;94540;;;8.5;70.5
68891;BME280;55932;48.702;8.884;2022-09-27T05:24:12;94540;;;8.5;70.5
68891;BME280;55932;48.702;8.884;2022-09-27T05:26:43;94530;;;8.4;70.5
68891;BME280;55932;48.702;8.884;2022-09-27T05:29:13;94540;;;8.4;70.5
68891;BME280;55932;48.702;8.884;2022-09-27T05:31:55;94550;;;8.3;70.5
68891;BME280;55932;48.702;8.884;2022-09-27T05:34:31;94550;;;8.3;70.5
68891;BME280;55932;48.702;8.884;2022-09-27T05:36:55;94560;;;8.1;70.5
68891;BME280;55932;48.702;8.884;2022-09-27T05:44:15;94580;;;7.8;71
68891;BME280;55932;48.702;8.884;2022-09-27T05:49:48;94590;;;7.9;71
68891;BME280;55932;48.702;8.884;2022-09-27T05:52:18;94590;;;8;71
68891;BME280;55932;48.702;8.884;2022-09-27T06:01:59;94610;;;8.4;70.5
68891;BME280;55932;48.702;8.884;2022-09-27T06:04:29;94610;;;8.4;70.5
68891;BME280;55932;48.702;8.884;2022-09-27T06:09:31;94620;;;8.4;70.5
68891;BME280;55932;48.702;8.884;2022-09-27T06:12:02;94620;;;8.6;70.5
68891;BME280;55932;48.702;8.884;2022-09-27T06:17:02;94620;;;8.8;70
68891;BME280;55932;48.702;8.884;2022-09-27T06:19:32;94620;;;8.8;70
68891;BME280;55932;48.702;8.884;2022-09-27T06:22:11;94620;;;8.8;70
68891;BME280;55932;48.702;8.884;2022-09-27T06:26:50;94630;;;8.6;70.5
68891;BME280;55932;48.702;8.884;2022-09-27T06:29:21;94630;;;8.5;70.5
68891;BME280;55932;48.702;8.884;2022-09-27T06:31:54;94640;;;8.4;70.5
68891;BME280;55932;48.702;8.884;2022-09-27T06:34:22;94630;;;8.4;70.5
68891;BME280;55932;48.702;8.884;2022-09-27T06:36:53;94640;;;8.4;70.5
68891;BME280;55932;48.702;8.884;2022-09-27T06:49:45;94650;;;8.9;70
68891;BME280;55932;48.702;8.884;2022-09-27T06:54:36;94650;;;8.6;70
68891;BME280;55932;48.702;8.884;2022-09-27T06:57:06;94650;;;8.4;70.5
68891;BME280;55932;48.702;8.884;2022-09-27T06:59:36;94650;;;8.4;70.5
68891;BME280;55932;48.702;8.884;2022-09-27T07:01:56;94660;;;8.8;70
68891;BME280;55932;48.702;8.884;2022-09-27T07:04:27;94660;;;9.3;69
68891;BME280;55932;48.702;8.884;2022-09-27T07:06:57;94660;;;9.5;69
68891;BME280;55932;48.702;8.884;2022-09-27T07:14:29;94670;;;9;70
68891;BME280;55932;48.702;8.884;2022-09-27T07:19:30;94680;;;9.3;69.5
68891;BME280;55932;48.702;8.884;2022-09-27T07:22:00;94680;;;9.3;69.5
68891;BME280;55932;48.702;8.884;2022-09-27T07:29:42;94690;;;9.4;70
68891;BME280;55932;48.702;8.884;2022-09-27T07:32:13;94700;;;9.8;69
68891;BME280;55932;48.702;8.884;2022-09-27T07:37:14;94700;;;10.9;67.5
68891;BME280;55932;48.702;8.884;2022-09-27T07:39:53;94700;;;10.7;68.5
68891;BME280;55932;48.702;8.884;2022-09-27T07:42:23;94700;;;10.4;69
68891;BME280;55932;48.702;8.884;2022-09-27T07:47:37;94700;;;10;69
68891;BME280;55932;48.702;8.884;2022-09-27T07:49:57;94710;;;10.3;69
68891;BME280;55932;48.702;8.884;2022-09-27T07:52:47;94710;;;10.7;68.5
68891;BME280;55932;48.702;8.884;2022-09-27T07:57:20;94720;;;11;68.5
68891;BME280;55932;48.702;8.884;2022-09-27T07:59:47;94720;;;11.3;68
68891;BME280;55932;48.702;8.884;2022-09-27T08:02:17;94720;;;11.5;68
68891;BME280;55932;48.702;8.884;2022-09-27T08:04:58;94730;;;11.7;68
68891;BME280;55932;48.702;8.884;2022-09-27T08:07:06;94730;;;12;68
68891;BME280;55932;48.702;8.884;2022-09-27T08:12:07;94740;;;12;68
68891;BME280;55932;48.702;8.884;2022-09-27T08:14:38;94740;;;11.4;68.5
68891;BME280;55932;48.702;8.884;2022-09-27T08:17:10;94740;;;10.7;69.5
68891;BME280;55932;48.702;8.884;2022-09-27T08:19:39;94750;;;10.1;70
68891;BME280;55932;48.702;8.884;2022-09-27T08:22:10;94750;;;9.7;70
68891;BME280;55932;48.702;8.884;2022-09-27T08:24:40;94750;;;9.3;70.5
68891;BME280;55932;48.702;8.884;2022-09-27T08:32:11;94760;;;8.8;71
68891;BME280;55932;48.702;8.884;2022-09-27T08:35:02;94760;;;8.9;71
68891;BME280;55932;48.702;8.884;2022-09-27T08:45:00;94760;;;12.8;66
68891;BME280;55932;48.702;8.884;2022-09-27T08:47:47;94770;;;12.5;66
68891;BME280;55932;48.702;8.884;2022-09-27T08:52:26;94760;;;13.1;66.5
68891;BME280;55932;48.702;8.884;2022-09-27T09:02:41;94760;;;14.1;65.5
68891;BME280;55932;48.702;8.884;2022-09-27T09:05:02;94760;;;13;67
68891;BME280;55932;48.702;8.884;2022-09-27T09:07:34;94760;;;13.4;66.5
68891;BME280;55932;48.702;8.884;2022-09-27T09:10:01;94770;;;15;65
68891;BME280;55932;48.702;8.884;2022-09-27T09:12:21;94750;;;16.9;62
68891;BME280;55932;48.702;8.884;2022-09-27T09:15:53;94750;;;17.9;60.5
68891;BME280;55932;48.702;8.884;2022-09-27T09:22:26;94760;;;18.6;60.5
68891;BME280;55932;48.702;8.884;2022-09-27T09:25:08;94760;;;16.1;64
68891;BME280;55932;48.702;8.884;2022-09-27T09:27:53;94760;;;15.4;65.5
68891;BME280;55932;48.702;8.884;2022-09-27T09:37:35;94760;;;20.2;61.5
68891;BME280;55932;48.702;8.884;2022-09-27T09:40:13;94760;;;18;62.5
68891;BME280;55932;48.702;8.884;2022-09-27T09:42:35;94750;;;16.3;66
68891;BME280;55932;48.702;8.884;2022-09-27T09:52:24;94740;;;20.4;61.5
68891;BME280;55932;48.702;8.884;2022-09-27T09:55:01;94740;;;19;63
68891;BME280;55932;48.702;8.884;2022-09-27T09:57:27;94730;;;19.6;63.5
68891;BME280;55932;48.702;8.884;2022-09-27T10:00:00;94730;;;18.2;65
68891;BME280;55932;48.702;8.884;2022-09-27T10:02:30;94730;;;15.6;68
68891;BME280;55932;48.702;8.884;2022-09-27T10:04:56;94730;;;14.3;70
68891;BME280;55932;48.702;8.884;2022-09-27T10:07:26;94730;;;13.7;70.5
68891;BME280;55932;48.702;8.884;2022-09-27T10:12:38;94740;;;12.6;71.5
68891;BME280;55932;48.702;8.884;2022-09-27T10:15:19;94740;;;12.8;71.5
68891;BME280;55932;48.702;8.884;2022-09-27T10:17:49;94740;;;13.6;70.5
68891;BME280;55932;48.702;8.884;2022-09-27T10:22:36;94730;;;14.7;69
68891;BME280;55932;48.702;8.884;2022-09-27T10:24:59;94740;;;13.4;70.5
68891;BME280;55932;48.702;8.884;2022-09-27T10:27:37;94730;;;12.8;71.5
68891;BME280;55932;48.702;8.884;2022-09-27T10:29:59;94730;;;12.9;71
68891;BME280;55932;48.702;8.884;2022-09-27T10:32:31;94730;;;12.9;71
68891;BME280;55932;48.702;8.884;2022-09-27T10:40:15;94740;;;12;71
68891;BME280;55932;48.702;8.884;2022-09-27T10:42:52;94740;;;11.8;71.5
68891;BME280;55932;48.702;8.884;2022-09-27T10:45:25;94740;;;11.6;71.5
68891;BME280;55932;48.702;8.884;2022-09-27T10:47:44;94740;;;11.7;71
68891;BME280;55932;48.702;8.884;2022-09-27T10:52:47;94730;;;11.5;71.5
68891;BME280;55932;48.702;8.884;2022-09-27T10:55:20;94730;;;11.3;71.5
68891;BME280;55932;48.702;8.884;2022-09-27T10:57:47;94730;;;11.4;71
68891;BME280;55932;48.702;8.884;2022-09-27T11:07:35;94710;;;12.6;69.5
68891;BME280;55932;48.702;8.884;2022-09-27T11:10:21;94710;;;12.5;69.5
68891;BME280;55932;48.702;8.884;2022-09-27T11:12:35;94710;;;12.2;70
68891;BME280;55932;48.702;8.884;2022-09-27T11:15:08;94720;;;11.9;70
68891;BME280;55932;48.702;8.884;2022-09-27T11:17:38;94710;;;11.3;70.5
68891;BME280;55932;48.702;8.884;2022-09-27T11:20:13;94710;;;11;70.5
68891;BME280;55932;48.702;8.884;2022-09-27T11:23:04;94720;;;10.8;71
68891;BME280;55932;48.702;8.884;2022-09-27T11:25:26;94710;;;10.9;71
68891;BME280;55932;48.702;8.884;2022-09-27T11:28:56;94710;;;12;71
68891;BME280;55932;48.702;8.884;2022-09-27T11:30:19;94710;;;13.8;71
68891;BME280;55932;48.702;8.884;2022-09-27T11:35:14;94710;;;13.8;69.5
68891;BME280;55932;48.702;8.884;2022-09-27T11:40:20;94710;;;12.9;70
68891;BME280;55932;48.702;8.884;2022-09-27T11:42:45;94710;;;12.6;70
68891;BME280;55932;48.702;8.884;2022-09-27T11:47:51;94700;;;12.1;70.5
68891;BME280;55932;48.702;8.884;2022-09-27T11:50:16;94700;;;12;70.5
68891;BME280;55932;48.702;8.884;2022-09-27T11:52:56;94710;;;11.6;71
68891;BME280;55932;48.702;8.884;2022-09-27T11:55:41;94720;;;11.4;71
68891;BME280;55932;48.702;8.884;2022-09-27T11:57:59;94700;;;12;70.5
68891;BME280;55932;48.702;8.884;2022-09-27T12:05:24;94700;;;13.4;68.5
68891;BME280;55932;48.702;8.884;2022-09-27T12:08:09;94700;;;12.3;69.5
68891;BME280;55932;48.702;8.884;2022-09-27T12:10:36;94710;;;11.5;70
68891;BME280;55932;48.702;8.884;2022-09-27T12:15:28;94690;;;11.2;71
68891;BME280;55932;48.702;8.884;2022-09-27T12:18:01;94690;;;11.4;71
68891;BME280;55932;48.702;8.884;2022-09-27T12:20:36;94700;;;11.7;70
68891;BME280;55932;48.702;8.884;2022-09-27T12:23:08;94690;;;11.5;70
68891;BME280;55932;48.702;8.884;2022-09-27T12:25:28;94690;;;11.9;70
68891;BME280;55932;48.702;8.884;2022-09-27T12:30:16;94690;;;11.8;70
68891;BME280;55932;48.702;8.884;2022-09-27T12:33:52;94680;;;11.6;70
68891;BME280;55932;48.702;8.884;2022-09-27T12:35:18;94680;;;11.6;70
68891;BME280;55932;48.702;8.884;2022-09-27T12:37:50;94680;;;11.8;69.5
68891;BME280;55932;48.702;8.884;2022-09-27T12:45:21;94660;;;12.8;69.5
68891;BME280;55932;48.702;8.884;2022-09-27T12:47:54;94660;;;13.6;69
68891;BME280;55932;48.702;8.884;2022-09-27T12:50:22;94650;;;13.8;70
68891;BME280;55932;48.702;8.884;2022-09-27T13:00:35;94650;;;14.2;69.5
68891;BME280;55932;48.702;8.884;2022-09-27T13:12:53;94650;;;14.7;68.5
68891;BME280;55932;48.702;8.884;2022-09-27T13:15:28;94640;;;15.2;70
68891;BME280;55932;48.702;8.884;2022-09-27T13:17:55;94640;;;17.4;67.5
68891;BME280;55932;48.702;8.884;2022-09-27T13:25:58;94630;;;16.1;67.5
68891;BME280;55932;48.702;8.884;2022-09-27T13:27:55;94630;;;15.9;68
68891;BME280;55932;48.702;8.884;2022-09-27T13:30:42;94630;;;16;68.5
68891;BME280;55932;48.702;8.884;2022-09-27T13:37:58;94640;;;14.5;68.5
68891;BME280;55932;48.702;8.884;2022-09-27T13:43:04;94650;;;12.8;70.5
68891;BME280;55932;48.702;8.884;2022-09-27T13:45:39;94630;;;14;71
68891;BME280;55932;48.702;8.884;2022-09-27T13:48:00;94630;;;14.9;70.5
68891;BME280;55932;48.702;8.884;2022-09-27T13:50:36;94630;;;14.5;69
68891;BME280;55932;48.702;8.884;2022-09-27T13:53:03;94630;;;14.7;70.5
68891;BME280;55932;48.702;8.884;2022-09-27T13:55:40;94630;;;16.9;69
68891;BME280;55932;48.702;8.884;2022-09-27T13:58:03;94630;;;16.5;68.5
68891;BME280;55932;48.702;8.884;2022-09-27T14:08:26;94640;;;13.7;70
68891;BME280;55932;48.702;8.884;2022-09-27T14:10:45;94650;;;13.2;70.5
68891;BME280;55932;48.702;8.884;2022-09-27T14:13:16;94660;;;12.9;70.5
68891;BME280;55932;48.702;8.884;2022-09-27T14:18:04;94660;;;13.3;70
68891;BME280;55932;48.702;8.884;2022-09-27T14:25:38;94650;;;13.4;70
68891;BME280;55932;48.702;8.884;2022-09-27T14:28:17;94650;;;12.8;70.5
68891;BME280;55932;48.702;8.884;2022-09-27T14:30:36;94650;;;12.5;71
68891;BME280;55932;48.702;8.884;2022-09-27T14:33:23;94650;;;12.6;70.5
68891;BME280;55932;48.702;8.884;2022-09-27T14:38:20;94650;;;12.6;70
68891;BME280;55932;48.702;8.884;2022-09-27T14:40:57;94660;;;12.7;70
68891;BME280;55932;48.702;8.884;2022-09-27T14:43:20;94650;;;13.1;69.5
68891;BME280;55932;48.702;8.884;2022-09-27T14:53:25;94640;;;13.3;69
68891;BME280;55932;48.702;8.884;2022-09-27T14:55:42;94650;;;13.1;69
68891;BME280;55932;48.702;8.884;2022-09-27T14:58:11;94650;;;12.7;69.5
68891;BME280;55932;48.702;8.884;2022-09-27T15:00:44;94660;;;12.5;70
68891;BME280;55932;48.702;8.884;2022-09-27T15:05:53;94670;;;12.7;70
68891;BME280;55932;48.702;8.884;2022-09-27T15:08:25;94670;;;13.3;69
68891;BME280;55932;48.702;8.884;2022-09-27T15:10:53;94650;;;12.8;69.5
68891;BME280;55932;48.702;8.884;2022-09-27T15:20:52;94680;;;11.8;70.5
68891;BME280;55932;48.702;8.884;2022-09-27T15:23:23;94690;;;11.4;71
68891;BME280;55932;48.702;8.884;2022-09-27T15:25:55;94680;;;11.3;71
68891;BME280;55932;48.702;8.884;2022-09-27T15:30:57;94700;;;11.9;70.5
68891;BME280;55932;48.702;8.884;2022-09-27T15:33:28;94690;;;12.1;70
68891;BME280;55932;48.702;8.884;2022-09-27T15:35:58;94690;;;12;70
68891;BME280;55932;48.702;8.884;2022-09-27T15:38:28;94690;;;11.8;70.5
68891;BME280;55932;48.702;8.884;2022-09-27T15:40:59;94680;;;11.7;70.5
68891;BME280;55932;48.702;8.884;2022-09-27T15:43:30;94690;;;11.7;70.5
68891;BME280;55932;48.702;8.884;2022-09-27T15:48:18;94690;;;11.9;70
68891;BME280;55932;48.702;8.884;2022-09-27T15:50:48;94690;;;12;70
68891;BME280;55932;48.702;8.884;2022-09-27T15:53:41;94700;;;11.6;70.5
68891;BME280;55932;48.702;8.884;2022-09-27T15:55:48;94700;;;11.3;70.5
68891;BME280;55932;48.702;8.884;2022-09-27T15:58:19;94700;;;11;71
68891;BME280;55932;48.702;8.884;2022-09-27T16:00:50;94700;;;10.8;71.5
68891;BME280;55932;48.702;8.884;2022-09-27T16:03:20;94710;;;10.8;71.5
68891;BME280;55932;48.702;8.884;2022-09-27T16:06:02;94700;;;10.8;71
68891;BME280;55932;48.702;8.884;2022-09-27T16:08:32;94710;;;10.8;71
68891;BME280;55932;48.702;8.884;2022-09-27T16:11:02;94710;;;10.8;71
68891;BME280;55932;48.702;8.884;2022-09-27T16:15:51;94730;;;10.5;71
68891;BME280;55932;48.702;8.884;2022-09-27T16:38:49;94730;;;10;71.5
68891;BME280;55932;48.702;8.884;2022-09-27T16:41:20;94740;;;9.9;71.5
68891;BME280;55932;48.702;8.884;2022-09-27T16:43:49;94730;;;9.9;71.5
68891;BME280;55932;48.702;8.884;2022-09-27T16:46:20;94730;;;9.9;71.5
68891;BME280;55932;48.702;8.884;2022-09-27T16:48:50;94730;;;9.9;71.5
68891;BME280;55932;48.702;8.884;2022-09-27T16:53:40;94730;;;9.7;71.5
68891;BME280;55932;48.702;8.884;2022-09-27T16:58:41;94740;;;9.6;71.5
68891;BME280;55932;48.702;8.884;2022-09-27T17:01:11;94750;;;9.6;71.5
68891;BME280;55932;48.702;8.884;2022-09-27T17:08:31;94740;;;9.5;71.5
68891;BME280;55932;48.702;8.884;2022-09-27T17:11:12;94750;;;9.5;71.5
68891;BME280;55932;48.702;8.884;2022-09-27T17:13:33;94750;;;9.4;71.5
68891;BME280;55932;48.702;8.884;2022-09-27T17:16:03;94750;;;9.4;71.5
68891;BME280;55932;48.702;8.884;2022-09-27T17:18:33;94750;;;9.3;71.5
68891;BME280;55932;48.702;8.884;2022-09-27T17:21:04;94750;;;9.2;71.5
68891;BME280;55932;48.702;8.884;2022-09-27T17:26:16;94740;;;9.1;71.5
68891;BME280;55932;48.702;8.884;2022-09-27T17:28:55;94740;;;9.1;71.5
68891;BME280;55932;48.702;8.884;2022-09-27T17:31:25;94750;;;9;71.5
68891;BME280;55932;48.702;8.884;2022-09-27T17:33:46;94740;;;9;71.5
68891;BME280;55932;48.702;8.884;2022-09-27T17:36:17;94750;;;9;71.5
68891;BME280;55932;48.702;8.884;2022-09-27T17:38:46;94750;;;8.9;71.5
68891;BME280;55932;48.702;8.884;2022-09-27T17:41:18;94750;;;8.9;71.5
68891;BME280;55932;48.702;8.884;2022-09-27T17:43:50;94750;;;8.8;71.5
68891;BME280;55932;48.702;8.884;2022-09-27T17:46:07;94750;;;8.8;71.5
68891;BME280;55932;48.702;8.884;2022-09-27T17:53:38;94760;;;8.6;71.5
68891;BME280;55932;48.702;8.884;2022-09-27T17:56:08;94760;;;8.6;71.5
68891;BME280;55932;48.702;8.884;2022-09-27T17:58:43;94770;;;8.5;71.5
68891;BME280;55932;48.702;8.884;2022-09-27T18:01:09;94770;;;8.4;71.5
68891;BME280;55932;48.702;8.884;2022-09-27T18:03:39;94770;;;8.4;71.5
68891;BME280;55932;48.702;8.884;2022-09-27T18:06:10;94770;;;8.3;71.5
68891;BME280;55932;48.702;8.884;2022-09-27T18:08:40;94770;;;8.2;71.5
68891;BME280;55932;48.702;8.884;2022-09-27T18:11:12;94770;;;8.1;71.5
68891;BME280;55932;48.702;8.884;2022-09-27T18:13:53;94780;;;8;71.5
68891;BME280;55932;48.702;8.884;2022-09-27T18:16:23;94780;;;7.9;71.5
68891;BME280;55932;48.702;8.884;2022-09-27T18:18:53;94780;;;7.8;71.5
68891;BME280;55932;48.702;8.884;2022-09-27T18:21:32;94780;;;7.8;71.5
68891;BME280;55932;48.702;8.884;2022-09-27T18:26:12;94770;;;7.6;72
68891;BME280;55932;48.702;8.884;2022-09-27T18:28:44;94770;;;7.5;72
68891;BME280;55932;48.702;8.884;2022-09-27T18:31:14;94770;;;7.4;72
68891;BME280;55932;48.702;8.884;2022-09-27T18:33:44;94770;;;7.4;72
68891;BME280;55932;48.702;8.884;2022-09-27T18:36:17;94760;;;7.2;72
68891;BME280;55932;48.702;8.884;2022-09-27T18:38:45;94760;;;7.2;72
68891;BME280;55932;48.702;8.884;2022-09-27T18:41:16;94760;;;7.3;72
68891;BME280;55932;48.702;8.884;2022-09-27T18:46:28;94760;;;7.1;72
68891;BME280;55932;48.702;8.884;2022-09-27T18:53:59;94750;;;6.9;72.5
68891;BME280;55932;48.702;8.884;2022-09-27T18:56:28;94760;;;6.8;72.5
68891;BME280;55932;48.702;8.884;2022-09-27T18:58:58;94760;;;6.7;72.5
68891;BME280;55932;48.702;8.884;2022-09-27T19:01:17;94770;;;6.6;72.5
68891;BME280;55932;48.702;8.884;2022-09-27T19:08:52;94770;;;6.5;72.5
68891;BME280;55932;48.702;8.884;2022-09-27T19:11:19;94780;;;6.5;72.5
68891;BME280;55932;48.702;8.884;2022-09-27T19:13:50;94770;;;6.5;72.5
68891;BME280;55932;48.702;8.884;2022-09-27T19:16:20;94780;;;6.5;72.5
68891;BME280;55932;48.702;8.884;2022-09-27T19:19:02;94790;;;6.4;73
68891;BME280;55932;48.702;8.884;2022-09-27T19:21:32;94790;;;6.4;73
68891;BME280;55932;48.702;8.884;2022-09-27T19:24:02;94790;;;6.3;73
68891;BME280;55932;48.702;8.884;2022-09-27T19:26:22;94780;;;6.2;73
68891;BME280;55932;48.702;8.884;2022-09-27T19:29:14;94780;;;6.1;73
68891;BME280;55932;48.702;8.884;2022-09-27T19:31:44;94790;;;6.1;73
68891;BME280;55932;48.702;8.884;2022-09-27T19:34:15;94790;;;6;73
68891;BME280;55932;48.702;8.884;2022-09-27T19:36:43;94790;;;6.1;73
68891;BME280;55932;48.702;8.884;2022-09-27T19:39:13;94780;;;6.1;73
68891;BME280;55932;48.702;8.884;2022-09-27T19:41:34;94780;;;6;73
68891;BME280;55932;48.702;8.884;2022-09-27T19:48:54;94790;;;6;73
68891;BME280;55932;48.702;8.884;2022-09-27T19:51:26;94790;;;6;73
68891;BME280;55932;48.702;8.884;2022-09-27T19:53:54;94790;;;6.1;73
68891;BME280;55932;48.702;8.884;2022-09-27T20:01:26;94770;;;6.2;72.5
68891;BME280;55932;48.702;8.884;2022-09-27T20:06:27;94770;;;6;72.5
68891;BME280;55932;48.702;8.884;2022-09-27T20:08:57;94770;;;5.9;72.5
68891;BME280;55932;48.702;8.884;2022-09-27T20:11:28;94770;;;5.8;72.5
68891;BME280;55932;48.702;8.884;2022-09-27T20:13:58;94760;;;5.8;72.5
68891;BME280;55932;48.702;8.884;2022-09-27T20:16:29;94760;;;5.7;73
68891;BME280;55932;48.702;8.884;2022-09-27T20:19:00;94770;;;5.7;73